Time;durP1;ratioP1;P1;durP2;ratioP2;P2;SDS_P1;SDS_P2;PMS_P1;PMS_P2;Temp;Humidity;BMP_temperature;BMP_pressure;BME280_temperature;BME280_humidity;BME280_pressure;Samples;Min_cycle;Max_cycle;Signal;HPM_P1;HPM_P2
2021/07/11 00:00:11;;;;;;;4.72;1.55;;;12.20;99.90;;;;;;5069782;28;20378;-80
2021/07/11 00:02:39;;;;;;;3.40;1.38;;;12.30;99.90;;;;;;5066385;28;20884;-80
2021/07/11 00:05:11;;;;;;;4.57;1.58;;;12.30;99.90;;;;;;5056962;28;20766;-79
2021/07/11 00:07:38;;;;;;;6.78;1.50;;;12.30;99.90;;;;;;5061921;28;20409;-79
2021/07/11 00:10:07;;;;;;;4.40;1.52;;;12.20;99.90;;;;;;5069280;28;20377;-79
2021/07/11 00:12:34;;;;;;;3.45;1.48;;;12.20;99.90;;;;;;5053855;28;20403;-79
2021/07/11 00:15:03;;;;;;;5.90;1.77;;;12.10;99.90;;;;;;5049275;28;20482;-79
2021/07/11 00:17:30;;;;;;;5.65;1.73;;;12.00;99.90;;;;;;5048924;28;20472;-80
2021/07/11 00:19:57;;;;;;;3.92;1.55;;;12.10;99.90;;;;;;5049134;28;20380;-79
2021/07/11 00:22:24;;;;;;;4.55;1.77;;;12.20;99.90;;;;;;5049313;28;20399;-80
2021/07/11 00:24:51;;;;;;;6.50;1.58;;;12.30;99.90;;;;;;5062424;28;20729;-80
2021/07/11 00:27:18;;;;;;;5.97;1.50;;;12.30;99.90;;;;;;5063662;28;20405;-80
2021/07/11 00:29:45;;;;;;;7.20;2.03;;;12.20;99.90;;;;;;5068535;28;20372;-81
2021/07/11 00:32:12;;;;;;;6.72;1.40;;;12.20;99.90;;;;;;5049022;28;20383;-81
2021/07/11 00:34:39;;;;;;;4.20;1.50;;;12.20;99.90;;;;;;5049224;28;20380;-80
2021/07/11 00:37:06;;;;;;;4.20;1.40;;;12.20;99.90;;;;;;5063846;28;20394;-79
2021/07/11 00:39:33;;;;;;;4.20;1.85;;;12.20;99.90;;;;;;5049249;28;20396;-80
2021/07/11 00:42:01;;;;;;;6.23;1.60;;;12.30;99.90;;;;;;5064842;28;20821;-81
2021/07/11 00:44:28;;;;;;;6.60;1.50;;;12.30;99.90;;;;;;5054387;28;20390;-83
2021/07/11 00:46:55;;;;;;;3.50;1.50;;;12.30;99.90;;;;;;5049936;28;20391;-84
2021/07/11 00:49:22;;;;;;;6.28;1.80;;;12.30;99.90;;;;;;5048841;28;20450;-80
2021/07/11 00:51:49;;;;;;;9.43;1.88;;;12.40;99.90;;;;;;5051012;28;20395;-81
2021/07/11 00:54:16;;;;;;;3.85;1.55;;;12.50;99.90;;;;;;5051629;28;20372;-81
2021/07/11 00:56:44;;;;;;;6.00;1.40;;;12.60;99.90;;;;;;5068313;28;20467;-82
2021/07/11 00:59:12;;;;;;;3.97;1.50;;;12.60;99.90;;;;;;5069162;28;20378;-80
2021/07/11 01:02:08;;;;;;;7.63;2.00;;;12.60;99.90;;;;;;5071532;28;20441;-80
2021/07/11 01:05:07;;;;;;;5.57;1.48;;;12.70;99.90;;;;;;5066491;28;20402;-80
2021/07/11 01:07:42;;;;;;;5.50;1.70;;;12.90;99.90;;;;;;5056516;28;20411;-79
2021/07/11 01:10:30;;;;;;;5.50;1.63;;;13.00;99.90;;;;;;5059441;28;20376;-80
2021/07/11 01:12:59;;;;;;;4.00;1.70;;;13.10;99.90;;;;;;5046997;28;20376;-81
2021/07/11 01:15:27;;;;;;;4.47;1.20;;;13.20;99.90;;;;;;5048478;28;20431;-80
2021/07/11 01:18:04;;;;;;;5.05;1.52;;;13.30;99.90;;;;;;5054109;28;20461;-81
2021/07/11 01:21:05;;;;;;;6.20;1.60;;;13.40;99.90;;;;;;5049240;28;20441;-80
2021/07/11 01:23:54;;;;;;;5.65;1.60;;;13.50;99.90;;;;;;5043481;28;20388;-81
2021/07/11 01:26:22;;;;;;;7.67;1.70;;;13.60;99.90;;;;;;5058544;28;20891;-79
2021/07/11 01:28:51;;;;;;;6.75;2.08;;;13.60;99.90;;;;;;5056676;28;20400;-81
2021/07/11 01:31:19;;;;;;;4.22;1.83;;;13.60;99.90;;;;;;5057307;28;20400;-82
2021/07/11 01:33:48;;;;;;;7.00;2.15;;;13.50;99.90;;;;;;5052195;28;20383;-78
2021/07/11 01:36:21;;;;;;;4.95;1.90;;;13.50;99.90;;;;;;5057363;28;20477;-80
2021/07/11 01:38:50;;;;;;;8.68;3.10;;;13.40;99.90;;;;;;5059612;28;20396;-80
2021/07/11 01:41:19;;;;;;;7.53;2.45;;;13.30;99.90;;;;;;5057520;28;20529;-81
2021/07/11 01:43:52;;;;;;;7.75;2.22;;;13.40;99.90;;;;;;5060980;28;20443;-81
2021/07/11 01:46:21;;;;;;;4.95;1.73;;;13.40;99.90;;;;;;5056130;28;20391;-81
2021/07/11 01:48:48;;;;;;;11.77;2.10;;;13.50;99.90;;;;;;5055481;28;20437;-80
2021/07/11 01:51:15;;;;;;;7.97;2.25;;;13.60;99.90;;;;;;5053753;28;20391;-79
2021/07/11 01:53:46;;;;;;;6.77;1.80;;;13.60;99.90;;;;;;5059802;28;20772;-80
2021/07/11 01:56:14;;;;;;;8.77;2.10;;;13.60;99.90;;;;;;5059901;28;20381;-80
2021/07/11 01:58:42;;;;;;;6.15;1.70;;;13.60;99.90;;;;;;5062860;28;20441;-78
2021/07/11 02:01:14;;;;;;;5.20;1.60;;;13.50;99.90;;;;;;5064204;28;20443;-79
2021/07/11 02:03:42;;;;;;;7.63;1.80;;;13.40;99.90;;;;;;5066114;28;20400;-79
2021/07/11 02:06:11;;;;;;;8.20;1.58;;;13.30;99.90;;;;;;5068863;28;20465;-78
2021/07/11 02:08:41;;;;;;;9.35;1.83;;;13.20;99.90;;;;;;5071483;28;20382;-77
2021/07/11 02:11:10;;;;;;;7.22;1.90;;;13.20;99.90;;;;;;5071123;28;20410;-78
2021/07/11 02:13:46;;;;;;;7.03;2.03;;;13.20;99.90;;;;;;5069649;28;20832;-78
2021/07/11 02:16:32;;;;;;;8.13;1.75;;;13.20;99.90;;;;;;5071498;28;20370;-78
2021/07/11 02:19:00;;;;;;;7.15;2.13;;;13.40;99.90;;;;;;5071166;28;20373;-78
2021/07/11 02:21:28;;;;;;;8.43;1.70;;;13.50;99.90;;;;;;5066700;28;20768;-79
2021/07/11 02:23:58;;;;;;;7.70;1.80;;;13.60;99.90;;;;;;5070882;28;20463;-79
2021/07/11 02:26:25;;;;;;;8.55;1.95;;;13.80;99.90;;;;;;5069748;28;20868;-78
2021/07/11 02:28:52;;;;;;;12.07;2.00;;;13.90;99.90;;;;;;5060575;28;20396;-78
2021/07/11 02:31:21;;;;;;;8.05;2.03;;;14.10;99.90;;;;;;5051339;28;20380;-79
2021/07/11 02:33:49;;;;;;;6.55;1.58;;;14.20;99.90;;;;;;5050715;28;20389;-78
2021/07/11 02:36:24;;;;;;;5.75;1.67;;;14.20;99.90;;;;;;5059014;28;20382;-78
2021/07/11 02:39:06;;;;;;;6.63;1.60;;;14.30;99.90;;;;;;5055519;28;20403;-78
2021/07/11 02:41:35;;;;;;;6.00;2.00;;;14.40;99.90;;;;;;5050570;28;20437;-79
2021/07/11 02:44:07;;;;;;;6.55;1.45;;;14.40;99.90;;;;;;5050891;28;20391;-79
2021/07/11 02:46:39;;;;;;;8.43;1.67;;;14.50;99.90;;;;;;5071034;28;20394;-79
2021/07/11 02:49:10;;;;;;;7.78;1.67;;;14.50;99.90;;;;;;5065225;28;20398;-79
2021/07/11 02:51:41;;;;;;;8.30;1.75;;;14.60;99.90;;;;;;5070628;28;20370;-78
2021/07/11 02:54:13;;;;;;;7.80;2.50;;;14.70;99.90;;;;;;5069296;28;20401;-78
2021/07/11 02:56:41;;;;;;;5.78;1.55;;;14.70;99.90;;;;;;5070434;28;20400;-79
2021/07/11 02:59:11;;;;;;;6.60;1.90;;;14.60;99.90;;;;;;5053459;28;20450;-77
2021/07/11 03:01:40;;;;;;;7.40;2.05;;;14.60;99.90;;;;;;5050901;28;20360;-79
2021/07/11 03:04:08;;;;;;;6.15;1.63;;;14.50;99.90;;;;;;5054116;28;20392;-76
2021/07/11 03:06:37;;;;;;;6.78;2.00;;;14.30;99.90;;;;;;5070308;28;20405;-75
2021/07/11 03:09:06;;;;;;;10.93;2.20;;;14.00;99.90;;;;;;5070064;28;20451;-77
2021/07/11 03:11:37;;;;;;;8.75;2.13;;;13.70;99.90;;;;;;5070221;28;20457;-76
2021/07/11 03:14:07;;;;;;;6.53;1.95;;;13.60;99.90;;;;;;5061660;28;20804;-76
2021/07/11 03:16:40;;;;;;;9.13;1.55;;;13.60;99.90;;;;;;5052379;28;20376;-76
2021/07/11 03:19:07;;;;;;;7.25;1.95;;;13.60;99.90;;;;;;5063840;28;20386;-76
2021/07/11 03:21:35;;;;;;;7.47;1.80;;;13.60;99.90;;;;;;5061688;28;20391;-76
2021/07/11 03:24:04;;;;;;;10.15;2.60;;;13.50;99.90;;;;;;5055003;28;20453;-77
2021/07/11 03:26:33;;;;;;;7.43;1.95;;;13.50;99.90;;;;;;5058495;28;20394;-76
2021/07/11 03:29:05;;;;;;;8.60;2.00;;;13.50;99.90;;;;;;5069891;28;20378;-76
2021/07/11 03:31:33;;;;;;;10.32;2.08;;;13.50;99.90;;;;;;5067559;28;20834;-77
2021/07/11 03:34:02;;;;;;;8.52;2.35;;;13.50;99.90;;;;;;5074463;28;20388;-78
2021/07/11 03:36:33;;;;;;;8.98;2.30;;;13.50;99.90;;;;;;5089772;28;20372;-77
2021/07/11 03:39:05;;;;;;;6.70;2.10;;;13.40;99.90;;;;;;5059163;28;20403;-77
2021/07/11 03:41:37;;;;;;;10.50;2.58;;;13.40;99.90;;;;;;5061709;28;20388;-78
2021/07/11 03:44:06;;;;;;;8.45;2.30;;;13.30;99.90;;;;;;5062908;28;20473;-78
2021/07/11 03:46:37;;;;;;;8.40;2.50;;;13.20;99.90;;;;;;5049500;28;20395;-77
2021/07/11 03:49:11;;;;;;;7.70;2.40;;;13.10;99.90;;;;;;5049793;28;20392;-77
2021/07/11 03:51:44;;;;;;;6.95;2.13;;;13.10;99.90;;;;;;5060605;28;20495;-78
2021/07/11 03:54:12;;;;;;;9.38;2.42;;;13.00;99.90;;;;;;5069471;28;20384;-77
2021/07/11 03:56:40;;;;;;;8.48;2.03;;;12.90;99.90;;;;;;5050437;28;20867;-78
2021/07/11 03:59:10;;;;;;;8.32;1.70;;;12.90;99.90;;;;;;5049358;28;20860;-76
2021/07/11 04:01:38;;;;;;;6.07;2.05;;;12.80;99.90;;;;;;5049693;28;20384;-77
2021/07/11 04:04:14;;;;;;;8.98;2.00;;;12.80;99.90;;;;;;5049401;28;20372;-77
2021/07/11 04:06:44;;;;;;;6.57;2.20;;;12.80;99.90;;;;;;5065403;28;20459;-77
2021/07/11 04:09:15;;;;;;;45.45;25.95;;;12.80;99.90;;;;;;5069155;28;20386;-78
2021/07/11 04:11:42;;;;;;;27.20;14.75;;;12.80;99.90;;;;;;5049947;28;20483;-79
2021/07/11 04:14:10;;;;;;;9.80;3.72;;;12.90;99.90;;;;;;5049180;28;20881;-78
2021/07/11 04:16:38;;;;;;;8.70;2.97;;;13.00;99.90;;;;;;5049075;28;20388;-79
2021/07/11 04:19:06;;;;;;;9.77;2.20;;;13.10;99.90;;;;;;5048029;28;20380;-79
2021/07/11 04:21:33;;;;;;;7.05;2.10;;;13.30;99.90;;;;;;5049465;28;20564;-77
2021/07/11 04:24:02;;;;;;;9.70;2.97;;;13.50;99.90;;;;;;5064162;28;20374;-77
2021/07/11 04:26:34;;;;;;;10.05;5.45;;;13.60;99.90;;;;;;5067791;28;20890;-79
2021/07/11 04:29:02;;;;;;;10.10;3.60;;;13.60;99.90;;;;;;5069206;28;20440;-79
2021/07/11 04:31:29;;;;;;;11.55;3.20;;;13.80;99.90;;;;;;5063520;28;20453;-78
2021/07/11 04:33:56;;;;;;;8.55;2.08;;;13.90;99.90;;;;;;5068039;28;20398;-79
2021/07/11 04:36:23;;;;;;;10.15;1.77;;;13.90;99.90;;;;;;5069050;28;20843;-78
2021/07/11 04:38:50;;;;;;;8.50;2.22;;;13.70;99.90;;;;;;5058499;28;20874;-79
2021/07/11 04:41:17;;;;;;;9.50;2.10;;;13.60;99.90;;;;;;5049272;28;20408;-79
2021/07/11 04:43:45;;;;;;;8.55;2.30;;;13.50;99.90;;;;;;5066970;28;20403;-79
2021/07/11 04:46:12;;;;;;;9.48;2.25;;;13.40;99.90;;;;;;5070785;28;20378;-78
2021/07/11 04:48:39;;;;;;;8.48;1.90;;;13.40;99.90;;;;;;5069077;28;20383;-78
2021/07/11 04:51:06;;;;;;;6.72;2.25;;;13.20;99.90;;;;;;5068767;28;20470;-80
2021/07/11 04:53:33;;;;;;;6.50;2.25;;;13.10;99.90;;;;;;5068823;28;20378;-80
2021/07/11 04:56:00;;;;;;;4.30;2.15;;;13.10;99.90;;;;;;5064679;28;20460;-80
2021/07/11 04:58:27;;;;;;;6.18;1.90;;;12.90;99.90;;;;;;5052404;28;20445;-79
2021/07/11 05:00:54;;;;;;;7.45;1.70;;;12.90;99.90;;;;;;5065047;28;20511;-78
2021/07/11 05:03:21;;;;;;;6.28;2.20;;;12.80;99.90;;;;;;5070004;28;20506;-80
2021/07/11 05:05:48;;;;;;;7.82;1.60;;;12.70;99.90;;;;;;5071324;28;20753;-79
2021/07/11 05:08:15;;;;;;;4.20;2.00;;;12.60;99.90;;;;;;5072528;28;20398;-81
2021/07/11 05:10:42;;;;;;;5.50;1.73;;;12.60;99.90;;;;;;5057293;28;20429;-80
2021/07/11 05:13:09;;;;;;;8.35;1.70;;;12.60;99.90;;;;;;5071134;28;20856;-80
2021/07/11 05:15:36;;;;;;;7.40;1.48;;;12.60;99.90;;;;;;5063381;28;20719;-79
2021/07/11 05:18:03;;;;;;;6.75;1.60;;;12.60;99.90;;;;;;5068038;28;20382;-79
2021/07/11 05:20:30;;;;;;;4.95;1.40;;;12.60;99.90;;;;;;5057672;28;20378;-79
2021/07/11 05:22:57;;;;;;;5.78;1.60;;;12.60;99.90;;;;;;5052321;28;20387;-80
2021/07/11 05:25:24;;;;;;;4.87;1.50;;;12.70;99.90;;;;;;5052693;28;20462;-80
2021/07/11 05:27:51;;;;;;;3.63;1.42;;;12.70;99.90;;;;;;5054068;28;20400;-80
2021/07/11 05:30:19;;;;;;;3.58;1.45;;;12.70;99.90;;;;;;5062346;28;20370;-79
2021/07/11 05:32:46;;;;;;;6.25;2.05;;;12.80;99.90;;;;;;5054186;28;20868;-80
2021/07/11 05:35:13;;;;;;;5.13;1.85;;;12.80;99.90;;;;;;5052096;28;20456;-79
2021/07/11 05:37:40;;;;;;;6.53;2.42;;;12.80;99.90;;;;;;5054016;28;20386;-78
2021/07/11 05:40:07;;;;;;;5.43;2.92;;;12.80;99.90;;;;;;5062386;28;20374;-81
2021/07/11 05:42:35;;;;;;;6.63;3.58;;;12.70;99.90;;;;;;5055823;28;20848;-81
2021/07/11 05:45:03;;;;;;;7.95;5.20;;;12.60;99.90;;;;;;5051439;28;20399;-81
2021/07/11 05:47:30;;;;;;;8.75;4.43;;;12.50;99.90;;;;;;5051309;28;20453;-81
2021/07/11 05:49:57;;;;;;;6.30;1.90;;;12.40;99.90;;;;;;5054251;28;20972;-80
2021/07/11 05:52:24;;;;;;;4.82;2.10;;;12.30;99.90;;;;;;5051871;28;20380;-79
2021/07/11 05:54:51;;;;;;;6.75;2.13;;;12.30;99.90;;;;;;5051697;28;20372;-80
2021/07/11 05:57:19;;;;;;;5.97;2.10;;;12.20;99.90;;;;;;5051911;28;20387;-80
2021/07/11 05:59:46;;;;;;;5.32;1.70;;;12.20;99.90;;;;;;5051461;28;20414;-78
2021/07/11 06:02:13;;;;;;;6.40;2.00;;;12.20;99.90;;;;;;5051917;28;20468;-79
2021/07/11 06:04:40;;;;;;;7.57;1.77;;;12.10;99.90;;;;;;5058758;28;20987;-80
2021/07/11 06:07:07;;;;;;;4.60;1.77;;;12.00;99.90;;;;;;5051070;28;20419;-80
2021/07/11 06:09:34;;;;;;;6.78;2.38;;;12.00;99.90;;;;;;5051357;28;20410;-80
2021/07/11 06:12:01;;;;;;;4.88;2.25;;;12.00;99.90;;;;;;5051133;28;20391;-78
2021/07/11 06:14:28;;;;;;;4.10;1.63;;;11.90;99.90;;;;;;5050577;28;20375;-79
2021/07/11 06:16:55;;;;;;;4.95;1.80;;;11.90;99.90;;;;;;5051272;28;20388;-79
2021/07/11 06:19:22;;;;;;;5.15;1.77;;;11.90;99.90;;;;;;5055385;28;20380;-79
2021/07/11 06:21:50;;;;;;;4.63;2.00;;;11.90;99.90;;;;;;5050830;28;20391;-80
2021/07/11 06:24:17;;;;;;;5.57;2.65;;;11.80;99.90;;;;;;5061312;28;20408;-81
2021/07/11 06:26:44;;;;;;;5.50;2.22;;;11.70;99.90;;;;;;5069577;28;20922;-81
2021/07/11 06:29:11;;;;;;;4.95;2.28;;;11.70;99.90;;;;;;5071002;28;20863;-79
2021/07/11 06:31:38;;;;;;;4.88;2.33;;;11.60;99.90;;;;;;5065171;28;20411;-79
2021/07/11 06:34:06;;;;;;;4.83;2.20;;;11.50;99.90;;;;;;5060081;28;20462;-84
2021/07/11 06:36:33;;;;;;;9.55;3.15;;;11.40;99.90;;;;;;5069805;28;20441;-80
2021/07/11 06:39:01;;;;;;;8.75;3.17;;;11.30;99.90;;;;;;5071005;28;20904;-80
2021/07/11 06:41:28;;;;;;;7.60;2.80;;;11.30;99.90;;;;;;5059542;28;20696;-81
2021/07/11 06:43:55;;;;;;;6.38;2.80;;;11.20;99.90;;;;;;5051872;28;20400;-81
2021/07/11 06:46:22;;;;;;;4.57;2.67;;;11.20;99.90;;;;;;5059536;28;20394;-80
2021/07/11 06:48:49;;;;;;;7.65;2.80;;;11.20;99.90;;;;;;5057042;28;20450;-81
2021/07/11 06:51:16;;;;;;;5.00;2.30;;;11.10;99.90;;;;;;5050872;28;20387;-80
2021/07/11 06:53:43;;;;;;;4.10;1.90;;;11.00;99.90;;;;;;5054806;28;20392;-80
2021/07/11 06:56:10;;;;;;;4.80;1.98;;;10.90;99.90;;;;;;5068810;28;20374;-81
2021/07/11 06:58:37;;;;;;;6.20;2.60;;;10.80;99.90;;;;;;5059894;28;20402;-80
2021/07/11 07:01:05;;;;;;;8.15;2.78;;;10.80;99.90;;;;;;5065139;28;20390;-80
2021/07/11 07:03:32;;;;;;;8.43;2.78;;;10.70;99.90;;;;;;5059032;28;20400;-80
2021/07/11 07:05:59;;;;;;;6.63;2.53;;;10.70;99.90;;;;;;5054646;28;20509;-80
2021/07/11 07:08:28;;;;;;;5.00;2.30;;;10.60;99.90;;;;;;5067083;28;20413;-80
2021/07/11 07:10:55;;;;;;;5.77;2.30;;;10.60;99.90;;;;;;5057033;28;20384;-80
2021/07/11 07:13:22;;;;;;;7.72;2.60;;;10.50;99.90;;;;;;5058318;28;20933;-80
2021/07/11 07:15:49;;;;;;;4.70;2.20;;;10.50;99.90;;;;;;5063327;28;20462;-81
2021/07/11 07:18:16;;;;;;;6.50;1.88;;;10.50;99.90;;;;;;5056840;28;20387;-80
2021/07/11 07:20:44;;;;;;;6.68;2.72;;;10.40;99.90;;;;;;5054379;28;20378;-81
2021/07/11 07:23:10;;;;;;;15.98;6.85;;;10.40;99.90;;;;;;5070071;28;20381;-80
2021/07/11 07:25:37;;;;;;;12.10;4.95;;;10.40;99.90;;;;;;5068896;28;20903;-81
2021/07/11 07:28:06;;;;;;;10.30;4.33;;;10.40;99.90;;;;;;5069925;28;20421;-80
2021/07/11 07:30:33;;;;;;;9.25;4.00;;;10.30;99.90;;;;;;5061379;28;20379;-80
2021/07/11 07:33:00;;;;;;;8.80;3.40;;;10.30;99.90;;;;;;5050413;28;20380;-80
2021/07/11 07:35:27;;;;;;;6.70;2.70;;;10.30;99.90;;;;;;5051061;28;20363;-80
2021/07/11 07:37:54;;;;;;;8.40;2.60;;;10.20;99.90;;;;;;5052041;28;20387;-80
2021/07/11 07:40:22;;;;;;;9.32;3.00;;;10.20;99.90;;;;;;5053934;28;20724;-80
2021/07/11 07:42:50;;;;;;;5.63;2.70;;;10.20;99.90;;;;;;5069503;28;21164;-80
2021/07/11 07:45:18;;;;;;;8.32;2.70;;;10.20;99.90;;;;;;5057693;28;20390;-81
2021/07/11 07:47:45;;;;;;;5.35;2.30;;;10.10;99.90;;;;;;5049640;28;20483;-81
2021/07/11 07:50:14;;;;;;;14.83;3.70;;;10.10;99.90;;;;;;5048356;28;20380;-80
2021/07/11 07:52:41;;;;;;;7.23;3.03;;;10.10;99.90;;;;;;5052079;28;20470;-80
2021/07/11 07:55:10;;;;;;;9.50;3.22;;;10.10;99.90;;;;;;5069514;28;20871;-80
2021/07/11 07:57:38;;;;;;;8.02;2.88;;;10.00;99.90;;;;;;5069450;28;20453;-80
2021/07/11 08:00:11;;;;;;;9.80;3.90;;;10.00;99.90;;;;;;5069398;28;20384;-80
2021/07/11 08:02:39;;;;;;;6.93;3.90;;;10.00;99.90;;;;;;5054169;28;20392;-80
2021/07/11 08:05:08;;;;;;;11.00;3.50;;;9.90;99.90;;;;;;5049322;28;20378;-80
2021/07/11 08:07:35;;;;;;;7.30;3.50;;;9.90;99.90;;;;;;5059713;28;20404;-80
2021/07/11 08:10:03;;;;;;;9.02;3.65;;;9.90;99.90;;;;;;5067788;28;20933;-80
2021/07/11 08:12:31;;;;;;;9.63;4.40;;;9.90;99.90;;;;;;5069249;28;20374;-80
2021/07/11 08:14:58;;;;;;;8.77;4.10;;;9.80;99.90;;;;;;5057039;28;20395;-80
2021/07/11 08:17:25;;;;;;;8.07;4.68;;;9.80;99.90;;;;;;5049175;28;20379;-80
2021/07/11 08:19:52;;;;;;;15.43;5.07;;;9.80;99.90;;;;;;5052339;28;20390;-81
2021/07/11 08:22:19;;;;;;;14.23;4.10;;;9.80;99.90;;;;;;5064564;28;20390;-80
2021/07/11 08:24:46;;;;;;;8.90;3.67;;;9.90;99.90;;;;;;5052625;28;20390;-80
2021/07/11 08:27:13;;;;;;;9.75;3.72;;;9.80;99.90;;;;;;5048966;28;20415;-80
2021/07/11 08:29:40;;;;;;;10.95;3.45;;;9.80;99.90;;;;;;5061963;28;20408;-80
2021/07/11 08:32:08;;;;;;;9.43;3.50;;;9.80;99.90;;;;;;5057590;28;20387;-81
2021/07/11 08:34:35;;;;;;;13.60;5.93;;;9.90;99.90;;;;;;5056870;28;20382;-81
2021/07/11 08:37:03;;;;;;;11.35;5.78;;;9.90;99.90;;;;;;5058453;28;20403;-81
2021/07/11 08:39:31;;;;;;;11.50;4.40;;;9.90;99.90;;;;;;5062075;28;20386;-81
2021/07/11 08:41:59;;;;;;;12.43;4.93;;;9.90;99.90;;;;;;5059040;28;20430;-82
2021/07/11 08:44:27;;;;;;;14.20;4.75;;;9.90;99.90;;;;;;5069026;28;20416;-81
2021/07/11 08:46:54;;;;;;;12.90;4.93;;;9.80;99.90;;;;;;5052174;28;20865;-81
2021/07/11 08:49:23;;;;;;;13.57;5.35;;;9.80;99.90;;;;;;5059733;28;20451;-82
2021/07/11 08:52:00;;;;;;;15.35;5.70;;;9.80;99.90;;;;;;5068829;28;20361;-83
2021/07/11 08:54:27;;;;;;;20.20;9.55;;;9.80;99.90;;;;;;5053714;28;20422;-81
2021/07/11 08:57:12;;;;;;;17.23;9.93;;;9.60;99.90;;;;;;5055362;28;20518;-80
2021/07/11 08:59:41;;;;;;;20.13;13.57;;;9.60;99.90;;;;;;5053182;28;20445;-81
2021/07/11 09:02:09;;;;;;;20.15;13.02;;;9.60;99.90;;;;;;5065584;28;20382;-80
2021/07/11 09:04:47;;;;;;;22.08;14.13;;;9.60;99.90;;;;;;5052195;28;20395;-81
2021/07/11 09:07:21;;;;;;;21.08;13.13;;;9.60;99.90;;;;;;5051723;28;20491;-80
2021/07/11 09:09:59;;;;;;;16.50;11.52;;;9.50;99.90;;;;;;5049673;28;20885;-79
2021/07/11 09:12:27;;;;;;;18.47;11.30;;;9.40;99.90;;;;;;5049481;28;20376;-80
2021/07/11 09:14:54;;;;;;;17.38;10.35;;;9.40;99.90;;;;;;5059144;28;20502;-80
2021/07/11 09:17:21;;;;;;;19.48;11.48;;;9.30;99.90;;;;;;5049647;28;20426;-80
2021/07/11 09:19:51;;;;;;;17.00;8.70;;;9.30;99.90;;;;;;5047771;28;20886;-80
2021/07/11 09:22:25;;;;;;;14.68;8.35;;;9.40;99.90;;;;;;5048299;28;20831;-80
2021/07/11 09:25:04;;;;;;;15.63;7.43;;;9.40;99.90;;;;;;5048733;28;20941;-80
2021/07/11 09:27:35;;;;;;;15.70;7.18;;;9.40;99.90;;;;;;5054691;28;20402;-81
2021/07/11 09:30:05;;;;;;;17.45;7.78;;;9.50;99.90;;;;;;5066534;28;20374;-80
2021/07/11 09:32:34;;;;;;;15.68;7.60;;;9.40;99.90;;;;;;5059480;28;20938;-80
2021/07/11 09:35:16;;;;;;;17.77;8.45;;;9.40;99.90;;;;;;5049034;28;20372;-80
2021/07/11 09:37:47;;;;;;;19.95;10.45;;;9.40;99.90;;;;;;5048284;28;20475;-81
2021/07/11 09:40:18;;;;;;;25.23;16.50;;;9.30;99.90;;;;;;5049203;28;20368;-81
2021/07/11 09:42:49;;;;;;;26.25;19.70;;;9.20;99.90;;;;;;5052411;28;20420;-81
2021/07/11 09:45:20;;;;;;;22.40;16.27;;;9.10;99.90;;;;;;5063632;28;20418;-80
2021/07/11 09:47:49;;;;;;;18.33;12.90;;;9.00;99.90;;;;;;5053942;28;20499;-80
2021/07/11 09:50:20;;;;;;;17.30;12.10;;;8.90;99.90;;;;;;5054445;28;20904;-80
2021/07/11 09:52:49;;;;;;;19.65;10.90;;;8.90;99.90;;;;;;5063118;28;20380;-80
2021/07/11 09:55:20;;;;;;;19.50;10.55;;;9.00;99.90;;;;;;5050931;28;20389;-80
2021/07/11 09:57:50;;;;;;;17.30;10.25;;;9.00;99.90;;;;;;5054557;28;20886;-81
2021/07/11 10:00:19;;;;;;;17.52;10.73;;;9.00;99.90;;;;;;5059850;28;20382;-81
2021/07/11 10:02:47;;;;;;;19.83;11.07;;;9.00;99.90;;;;;;5058742;28;20542;-81
2021/07/11 10:05:16;;;;;;;19.13;10.85;;;9.00;99.90;;;;;;5053181;28;20973;-80
2021/07/11 10:07:45;;;;;;;19.27;10.35;;;9.00;99.90;;;;;;5050298;28;20451;-81
2021/07/11 10:10:14;;;;;;;15.38;9.65;;;9.00;99.90;;;;;;5068071;28;20457;-81
2021/07/11 10:12:42;;;;;;;14.13;10.00;;;9.00;99.90;;;;;;5056457;28;20803;-80
2021/07/11 10:15:15;;;;;;;15.05;10.13;;;9.00;99.90;;;;;;5062045;28;20390;-81
2021/07/11 10:17:49;;;;;;;17.70;9.55;;;9.00;99.90;;;;;;5065443;28;20374;-81
2021/07/11 10:20:22;;;;;;;16.88;9.43;;;9.00;99.90;;;;;;5048006;28;20395;-81
2021/07/11 10:22:52;;;;;;;16.37;8.70;;;9.00;99.90;;;;;;5051343;28;20514;-81
2021/07/11 10:25:22;;;;;;;15.77;9.15;;;9.00;99.90;;;;;;5047548;28;20378;-80
2021/07/11 10:28:04;;;;;;;18.57;9.27;;;9.00;99.90;;;;;;5055794;28;20883;-81
2021/07/11 10:30:33;;;;;;;16.33;10.00;;;9.10;99.90;;;;;;5054125;28;20372;-80
2021/07/11 10:33:13;;;;;;;16.73;9.30;;;9.00;99.90;;;;;;5049526;28;20395;-82
2021/07/11 10:35:58;;;;;;;17.35;8.85;;;9.00;99.90;;;;;;5060257;28;20447;-81
2021/07/11 10:38:39;;;;;;;21.23;10.37;;;9.00;99.90;;;;;;5067913;28;20452;-80
2021/07/11 10:41:18;;;;;;;14.52;9.15;;;9.00;99.90;;;;;;5058564;28;20394;-81
2021/07/11 10:44:02;;;;;;;22.60;11.70;;;8.90;99.90;;;;;;5062384;28;20400;-80
2021/07/11 10:46:41;;;;;;;22.40;12.85;;;8.90;99.90;;;;;;5051462;28;20920;-80
2021/07/11 10:49:22;;;;;;;23.20;14.10;;;8.90;99.90;;;;;;5063706;28;20399;-80
2021/07/11 10:51:54;;;;;;;20.80;12.25;;;8.90;99.90;;;;;;5052185;28;20964;-80
2021/07/11 10:54:31;;;;;;;19.13;11.35;;;8.90;99.90;;;;;;5055442;28;20899;-79
2021/07/11 10:57:09;;;;;;;19.63;10.63;;;8.90;99.90;;;;;;5051794;28;20479;-80
2021/07/11 10:59:47;;;;;;;17.85;9.95;;;8.90;99.90;;;;;;5055401;28;20382;-80
2021/07/11 11:02:18;;;;;;;17.08;9.20;;;8.90;99.90;;;;;;5052025;28;20913;-81
2021/07/11 11:04:57;;;;;;;20.27;10.13;;;8.90;99.90;;;;;;5048574;28;20507;-81
2021/07/11 11:07:24;;;;;;;16.15;8.73;;;8.90;99.90;;;;;;5047272;28;20414;-80
2021/07/11 11:09:51;;;;;;;18.60;8.57;;;9.00;99.90;;;;;;5051188;28;20734;-80
2021/07/11 11:12:29;;;;;;;16.98;8.10;;;9.00;99.90;;;;;;5057884;28;20448;-80
2021/07/11 11:14:59;;;;;;;15.85;8.00;;;9.00;99.90;;;;;;5051822;28;20762;-80
2021/07/11 11:17:37;;;;;;;17.67;7.53;;;9.10;99.90;;;;;;5050403;28;20486;-80
2021/07/11 11:20:13;;;;;;;17.77;7.65;;;9.00;99.90;;;;;;5053397;28;20413;-80
2021/07/11 11:22:50;;;;;;;14.05;7.20;;;9.00;99.90;;;;;;5048577;28;20434;-80
2021/07/11 11:25:22;;;;;;;14.02;6.72;;;9.00;99.90;;;;;;5060293;28;20398;-80
2021/07/11 11:27:58;;;;;;;18.30;7.00;;;9.00;99.90;;;;;;5048264;28;20502;-80
2021/07/11 11:30:26;;;;;;;18.30;6.47;;;9.00;99.90;;;;;;5048094;28;20474;-80
2021/07/11 11:32:58;;;;;;;17.63;6.70;;;9.00;99.90;;;;;;5047253;28;20521;-80
2021/07/11 11:35:28;;;;;;;13.17;6.90;;;8.90;99.90;;;;;;5057949;28;20980;-80
2021/07/11 11:37:58;;;;;;;19.95;7.80;;;8.90;99.90;;;;;;5048394;28;20384;-80
2021/07/11 11:40:28;;;;;;;16.80;6.17;;;8.90;99.90;;;;;;5056694;28;20378;-80
2021/07/11 11:43:00;;;;;;;16.60;6.40;;;8.90;99.90;;;;;;5060815;28;20423;-80
2021/07/11 11:45:30;;;;;;;15.77;6.80;;;8.90;99.90;;;;;;5048517;28;20434;-80
2021/07/11 11:48:04;;;;;;;21.35;7.45;;;8.90;99.90;;;;;;5046548;28;20408;-80
2021/07/11 11:50:32;;;;;;;18.75;6.93;;;8.80;99.90;;;;;;5066494;28;20439;-81
2021/07/11 11:53:17;;;;;;;17.30;6.88;;;8.90;99.90;;;;;;5058158;28;20380;-81
2021/07/11 11:56:02;;;;;;;14.93;6.00;;;8.80;99.90;;;;;;5061025;28;20437;-80
2021/07/11 11:58:31;;;;;;;16.40;6.63;;;8.70;99.90;;;;;;5058386;28;20391;-80
2021/07/11 12:01:14;;;;;;;20.00;8.57;;;8.70;99.90;;;;;;5050988;28;20516;-79
2021/07/11 12:03:42;;;;;;;21.40;8.73;;;8.70;99.90;;;;;;5063790;28;20777;-80
2021/07/11 12:06:12;;;;;;;17.75;8.13;;;8.80;99.90;;;;;;5054545;28;20379;-80
2021/07/11 12:08:46;;;;;;;29.42;9.27;;;8.80;99.90;;;;;;5064702;28;20473;-80
2021/07/11 12:11:14;;;;;;;22.05;9.30;;;8.70;99.90;;;;;;5067983;28;20370;-81
2021/07/11 12:13:41;;;;;;;17.40;7.90;;;8.70;99.90;;;;;;5069201;28;20378;-80
2021/07/11 12:16:11;;;;;;;20.45;10.23;;;8.60;99.90;;;;;;5068031;28;20374;-80
2021/07/11 12:18:47;;;;;;;22.65;10.15;;;8.50;99.90;;;;;;5062470;28;20398;-80
2021/07/11 12:21:25;;;;;;;16.95;9.43;;;8.40;99.90;;;;;;5050730;28;20430;-81
2021/07/11 12:24:18;;;;;;;19.20;9.10;;;8.40;99.90;;;;;;5078396;28;20935;-80
2021/07/11 12:26:50;;;;;;;16.17;9.10;;;8.40;99.90;;;;;;5061186;28;20498;-80
2021/07/11 12:29:26;;;;;;;18.63;8.90;;;8.40;99.90;;;;;;5049315;28;20894;-80
2021/07/11 12:32:01;;;;;;;17.23;8.68;;;8.40;99.90;;;;;;5053291;28;20460;-81
2021/07/11 12:34:29;;;;;;;16.58;7.97;;;8.40;99.90;;;;;;5050733;28;20383;-81
2021/07/11 12:37:07;;;;;;;18.13;8.18;;;8.50;99.90;;;;;;5057259;28;20736;-80
2021/07/11 12:39:38;;;;;;;18.83;8.07;;;8.40;99.90;;;;;;5065573;28;20803;-80
2021/07/11 12:42:17;;;;;;;17.77;8.13;;;8.50;99.90;;;;;;5052818;28;20747;-80
2021/07/11 12:44:45;;;;;;;23.95;7.80;;;8.60;99.90;;;;;;5059136;28;20382;-80
2021/07/11 12:47:14;;;;;;;19.90;7.13;;;8.60;99.90;;;;;;5060496;28;20406;-80
2021/07/11 12:49:57;;;;;;;25.65;8.32;;;8.60;99.90;;;;;;5059599;28;20432;-80
2021/07/11 12:52:27;;;;;;;15.18;6.82;;;8.60;99.90;;;;;;5063598;28;20890;-80
2021/07/11 12:54:55;;;;;;;14.32;6.85;;;8.50;99.90;;;;;;5077690;28;20520;-80
2021/07/11 12:57:27;;;;;;;20.03;8.13;;;8.40;99.90;;;;;;5053297;28;20746;-80
2021/07/11 12:59:54;;;;;;;19.33;7.45;;;8.40;99.90;;;;;;5056575;28;20374;-80